<?xml version="1.0" encoding="UTF-8" standalone="no" ?>
<gpx xmlns="http://www.topografix.com/GPX/1/1" xmlns:xsi="http://www.w3.org/2001/XMLSchema-instance" xsi:schemaLocation="http://www.topografix.com/GPX/1/1 http://www.topografix.com/GPX/1/1/gpx.xsd" version="1.1" creator="VisuGPX - https://www.visugpx.com">
  <metadata>
    <name>GR653 De Toulouse (Haute-Garonne) à Auch (Gers) (2019)</name>
    <desc><![CDATA[
Total: 23.2km]]></desc>
  </metadata>
  <trk>
    <name><![CDATA[GR653 De Toulouse (Haute-Garonne) à Auch (Gers) (2019)]]></name>
    <desc><![CDATA[Total: 23.2km]]></desc>
    <trkseg>
      <trkpt lat="43.61901" lon="1.08134">
        <ele>139.043</ele>
        <time>2016-12-30T13:15:45Z</time>
      </trkpt>
      <trkpt lat="43.6191" lon="1.08101">
        <ele>139.06</ele>
        <time>2016-12-30T13:16:05Z</time>
      </trkpt>
      <trkpt lat="43.62033" lon="1.07959">
        <ele>139.134</ele>
        <time>2016-12-30T13:16:25Z</time>
      </trkpt>
      <trkpt lat="43.61902" lon="1.07917">
        <ele>139.026</ele>
        <time>2016-12-30T13:17:45Z</time>
      </trkpt>
      <trkpt lat="43.61829" lon="1.07868">
        <ele>139.023</ele>
        <time>2016-12-30T13:18:05Z</time>
      </trkpt>
      <trkpt lat="43.61644" lon="1.0766">
        <ele>139.466</ele>
        <time>2016-12-30T13:18:25Z</time>
      </trkpt>
      <trkpt lat="43.61667" lon="1.07636">
        <ele>140.08</ele>
        <time>2016-12-30T13:19:25Z</time>
      </trkpt>
      <trkpt lat="43.61662" lon="1.07612">
        <ele>140.084</ele>
        <time>2016-12-30T13:19:45Z</time>
      </trkpt>
      <trkpt lat="43.6162" lon="1.07602">
        <ele>140.107</ele>
        <time>2016-12-30T13:20:05Z</time>
      </trkpt>
      <trkpt lat="43.61522" lon="1.0752">
        <ele>140.017</ele>
        <time>2016-12-30T13:20:25Z</time>
      </trkpt>
      <trkpt lat="43.61516" lon="1.07415">
        <ele>141.608</ele>
        <time>2016-12-30T13:20:45Z</time>
      </trkpt>
      <trkpt lat="43.61519" lon="1.07325">
        <ele>142.352</ele>
        <time>2016-12-30T13:21:05Z</time>
      </trkpt>
      <trkpt lat="43.6149" lon="1.0728">
        <ele>142.612</ele>
        <time>2016-12-30T13:21:25Z</time>
      </trkpt>
      <trkpt lat="43.61508" lon="1.07153">
        <ele>142.389</ele>
        <time>2016-12-30T13:21:45Z</time>
      </trkpt>
      <trkpt lat="43.6144" lon="1.07121">
        <ele>140.973</ele>
        <time>2016-12-30T13:22:05Z</time>
      </trkpt>
      <trkpt lat="43.6143" lon="1.07112">
        <ele>140.575</ele>
        <time>2019-02-28T18:25:06Z</time>
      </trkpt>
      <trkpt lat="43.61397" lon="1.07064">
        <ele>140.262</ele>
        <time>2019-02-28T18:25:26Z</time>
      </trkpt>
      <trkpt lat="43.61333" lon="1.07018">
        <ele>140.045</ele>
        <time>2019-02-28T18:25:46Z</time>
      </trkpt>
      <trkpt lat="43.61283" lon="1.07019">
        <ele>140.029</ele>
        <time>2019-02-28T18:26:06Z</time>
      </trkpt>
      <trkpt lat="43.6125" lon="1.07075">
        <ele>141.057</ele>
        <time>2019-02-28T18:26:26Z</time>
      </trkpt>
      <trkpt lat="43.61243" lon="1.07189">
        <ele>141</ele>
        <time>2016-12-30T13:24:25Z</time>
      </trkpt>
      <trkpt lat="43.61213" lon="1.07227">
        <ele>140.92</ele>
        <time>2016-12-30T13:24:45Z</time>
      </trkpt>
      <trkpt lat="43.61154" lon="1.07225">
        <ele>141.008</ele>
        <time>2016-12-30T13:25:25Z</time>
      </trkpt>
      <trkpt lat="43.61112" lon="1.07175">
        <ele>141.029</ele>
        <time>2016-12-30T13:25:45Z</time>
      </trkpt>
      <trkpt lat="43.611" lon="1.07099">
        <ele>141.099</ele>
        <time>2016-12-30T13:26:05Z</time>
      </trkpt>
      <trkpt lat="43.61056" lon="1.07019">
        <ele>141.056</ele>
        <time>2016-12-30T13:26:25Z</time>
      </trkpt>
      <trkpt lat="43.61017" lon="1.0702">
        <ele>141.06</ele>
        <time>2016-12-30T13:26:45Z</time>
      </trkpt>
      <trkpt lat="43.60989" lon="1.07068">
        <ele>141.082</ele>
        <time>2016-12-30T13:27:05Z</time>
      </trkpt>
      <trkpt lat="43.60959" lon="1.07068">
        <ele>141.029</ele>
        <time>2016-12-30T13:27:25Z</time>
      </trkpt>
      <trkpt lat="43.60912" lon="1.07005">
        <ele>141.282</ele>
        <time>2016-12-30T13:27:45Z</time>
      </trkpt>
      <trkpt lat="43.60827" lon="1.06948">
        <ele>141.136</ele>
        <time>2016-12-30T13:28:05Z</time>
      </trkpt>
      <trkpt lat="43.60861" lon="1.06832">
        <ele>141.033</ele>
        <time>2016-12-30T13:28:25Z</time>
      </trkpt>
      <trkpt lat="43.6083" lon="1.06758">
        <ele>141.023</ele>
        <time>2016-12-30T13:28:45Z</time>
      </trkpt>
      <trkpt lat="43.60731" lon="1.06663">
        <ele>141.015</ele>
        <time>2016-12-30T13:29:05Z</time>
      </trkpt>
      <trkpt lat="43.60692" lon="1.06521">
        <ele>141.008</ele>
        <time>2016-12-30T13:29:25Z</time>
      </trkpt>
      <trkpt lat="43.60704" lon="1.06328">
        <ele>142.027</ele>
        <time>2016-12-30T13:29:45Z</time>
      </trkpt>
      <trkpt lat="43.60679" lon="1.06159">
        <ele>142.047</ele>
        <time>2016-12-30T13:30:05Z</time>
      </trkpt>
      <trkpt lat="43.60597" lon="1.05918">
        <ele>142.034</ele>
        <time>2016-12-30T13:30:25Z</time>
      </trkpt>
      <trkpt lat="43.60461" lon="1.05562">
        <ele>142.038</ele>
        <time>2016-12-30T13:30:45Z</time>
      </trkpt>
      <trkpt lat="43.60499" lon="1.05514">
        <ele>142.01</ele>
        <time>2016-12-30T13:31:05Z</time>
      </trkpt>
      <trkpt lat="43.60526" lon="1.0544">
        <ele>143.167</ele>
        <time>2016-12-30T13:31:25Z</time>
      </trkpt>
      <trkpt lat="43.60565" lon="1.05363">
        <ele>147.94</ele>
        <time>2016-12-30T13:31:45Z</time>
      </trkpt>
      <trkpt lat="43.60449" lon="1.05246">
        <ele>145.254</ele>
        <time>2016-12-30T13:32:05Z</time>
      </trkpt>
      <trkpt lat="43.60366" lon="1.05102">
        <ele>143.131</ele>
        <time>2016-12-30T13:32:25Z</time>
      </trkpt>
      <trkpt lat="43.60378" lon="1.05039">
        <ele>143.661</ele>
        <time>2016-12-30T13:32:45Z</time>
      </trkpt>
      <trkpt lat="43.60364" lon="1.04974">
        <ele>143.907</ele>
        <time>2016-12-30T13:33:05Z</time>
      </trkpt>
      <trkpt lat="43.60418" lon="1.04821">
        <ele>145.108</ele>
        <time>2016-12-30T13:33:25Z</time>
      </trkpt>
      <trkpt lat="43.60456" lon="1.04767">
        <ele>146.477</ele>
        <time>2016-12-30T13:33:45Z</time>
      </trkpt>
      <trkpt lat="43.60552" lon="1.04549">
        <ele>148.967</ele>
        <time>2016-12-30T13:34:05Z</time>
      </trkpt>
      <trkpt lat="43.60677" lon="1.04336">
        <ele>150.054</ele>
        <time>2016-12-30T13:34:25Z</time>
      </trkpt>
      <trkpt lat="43.6076" lon="1.04153">
        <ele>150.078</ele>
        <time>2016-12-30T13:34:45Z</time>
      </trkpt>
      <trkpt lat="43.60775" lon="1.04053">
        <ele>150.03</ele>
        <time>2016-12-30T13:35:05Z</time>
      </trkpt>
      <trkpt lat="43.60826" lon="1.03827">
        <ele>150.067</ele>
        <time>2016-12-30T13:35:25Z</time>
      </trkpt>
      <trkpt lat="43.60893" lon="1.03653">
        <ele>150.44</ele>
        <time>2016-12-30T13:35:45Z</time>
      </trkpt>
      <trkpt lat="43.60387" lon="1.02201">
        <ele>195.994</ele>
        <time>2016-12-30T13:36:05Z</time>
      </trkpt>
      <trkpt lat="43.60386" lon="1.02198">
        <ele>196.079</ele>
        <time>2016-12-30T13:36:25Z</time>
      </trkpt>
      <trkpt lat="43.60279" lon="1.01611">
        <ele>200.005</ele>
        <time>2016-12-30T13:36:45Z</time>
      </trkpt>
      <trkpt lat="43.6026" lon="1.01515">
        <ele>201.925</ele>
        <time>2016-12-30T13:37:05Z</time>
      </trkpt>
      <trkpt lat="43.60252" lon="1.00996">
        <ele>216.008</ele>
        <time>2016-12-30T13:37:25Z</time>
      </trkpt>
      <trkpt lat="43.60281" lon="1.0084">
        <ele>216.161</ele>
        <time>2016-12-30T13:37:45Z</time>
      </trkpt>
      <trkpt lat="43.60262" lon="1.00834">
        <ele>216.021</ele>
        <time>2016-12-30T13:38:05Z</time>
      </trkpt>
      <trkpt lat="43.60253" lon="1.00717">
        <ele>210.078</ele>
        <time>2016-12-30T13:38:25Z</time>
      </trkpt>
      <trkpt lat="43.60239" lon="1.00629">
        <ele>206.072</ele>
        <time>2016-12-30T13:38:45Z</time>
      </trkpt>
      <trkpt lat="43.60206" lon="1.00484">
        <ele>200.994</ele>
        <time>2016-12-30T13:39:05Z</time>
      </trkpt>
      <trkpt lat="43.60169" lon="1.00388">
        <ele>198.231</ele>
        <time>2016-12-30T13:39:25Z</time>
      </trkpt>
      <trkpt lat="43.60094" lon="1.00335">
        <ele>200.234</ele>
        <time>2016-12-30T13:39:45Z</time>
      </trkpt>
      <trkpt lat="43.5995" lon="1.00042">
        <ele>206.468</ele>
        <time>2016-12-30T13:40:05Z</time>
      </trkpt>
      <trkpt lat="43.59912" lon="0.99906">
        <ele>200.569</ele>
        <time>2016-12-30T13:40:25Z</time>
      </trkpt>
      <trkpt lat="43.5985" lon="0.99799">
        <ele>190.204</ele>
        <time>2016-12-30T13:40:45Z</time>
      </trkpt>
      <trkpt lat="43.59835" lon="0.99729">
        <ele>182.824</ele>
        <time>2016-12-30T13:41:05Z</time>
      </trkpt>
      <trkpt lat="43.59835" lon="0.99625">
        <ele>178.208</ele>
        <time>2016-12-30T13:41:25Z</time>
      </trkpt>
      <trkpt lat="43.59796" lon="0.99417">
        <ele>179.09</ele>
        <time>2016-12-30T13:41:45Z</time>
      </trkpt>
      <trkpt lat="43.59783" lon="0.99081">
        <ele>190.95</ele>
        <time>2016-12-30T13:42:05Z</time>
      </trkpt>
      <trkpt lat="43.59767" lon="0.98863">
        <ele>199.357</ele>
        <time>2016-12-30T13:42:25Z</time>
      </trkpt>
      <trkpt lat="43.59743" lon="0.98747">
        <ele>205.751</ele>
        <time>2016-12-30T13:42:45Z</time>
      </trkpt>
      <trkpt lat="43.59697" lon="0.98676">
        <ele>213.283</ele>
        <time>2016-12-30T13:43:05Z</time>
      </trkpt>
      <trkpt lat="43.59698" lon="0.98527">
        <ele>220.03</ele>
        <time>2016-12-30T13:43:25Z</time>
      </trkpt>
      <trkpt lat="43.59748" lon="0.9842">
        <ele>219.953</ele>
        <time>2016-12-30T13:43:45Z</time>
      </trkpt>
      <trkpt lat="43.59785" lon="0.98248">
        <ele>213.237</ele>
        <time>2016-12-30T13:44:05Z</time>
      </trkpt>
      <trkpt lat="43.598" lon="0.98137">
        <ele>208.826</ele>
        <time>2016-12-30T13:44:25Z</time>
      </trkpt>
      <trkpt lat="43.59755" lon="0.98112">
        <ele>203.947</ele>
        <time>2016-12-30T13:44:45Z</time>
      </trkpt>
      <trkpt lat="43.59771" lon="0.97983">
        <ele>200.911</ele>
        <time>2016-12-30T13:45:05Z</time>
      </trkpt>
      <trkpt lat="43.59747" lon="0.97994">
        <ele>197.308</ele>
        <time>2016-12-30T13:45:25Z</time>
      </trkpt>
      <trkpt lat="43.5965" lon="0.97916">
        <ele>176.856</ele>
        <time>2016-12-30T13:45:45Z</time>
      </trkpt>
      <trkpt lat="43.59616" lon="0.97838">
        <ele>175.856</ele>
        <time>2016-12-30T13:46:05Z</time>
      </trkpt>
      <trkpt lat="43.59563" lon="0.97859">
        <ele>176.133</ele>
        <time>2016-12-30T13:46:25Z</time>
      </trkpt>
      <trkpt lat="43.59488" lon="0.97865">
        <ele>175.977</ele>
        <time>2016-12-30T13:46:45Z</time>
      </trkpt>
      <trkpt lat="43.59475" lon="0.97794">
        <ele>181.399</ele>
        <time>2016-12-30T13:47:05Z</time>
      </trkpt>
      <trkpt lat="43.59409" lon="0.97683">
        <ele>187.716</ele>
        <time>2016-12-30T13:47:25Z</time>
      </trkpt>
      <trkpt lat="43.59363" lon="0.97651">
        <ele>190.599</ele>
        <time>2016-12-30T13:47:45Z</time>
      </trkpt>
      <trkpt lat="43.59336" lon="0.97605">
        <ele>192.373</ele>
        <time>2016-12-30T13:48:05Z</time>
      </trkpt>
      <trkpt lat="43.59219" lon="0.97489">
        <ele>170.076</ele>
        <time>2016-12-30T13:48:25Z</time>
      </trkpt>
      <trkpt lat="43.59251" lon="0.97425">
        <ele>170.59</ele>
        <time>2016-12-30T13:48:45Z</time>
      </trkpt>
      <trkpt lat="43.59338" lon="0.97346">
        <ele>173.319</ele>
        <time>2016-12-30T13:49:05Z</time>
      </trkpt>
      <trkpt lat="43.5938" lon="0.97248">
        <ele>175.008</ele>
        <time>2016-12-30T13:49:25Z</time>
      </trkpt>
      <trkpt lat="43.59407" lon="0.97045">
        <ele>176.771</ele>
        <time>2016-12-30T13:49:45Z</time>
      </trkpt>
      <trkpt lat="43.59432" lon="0.9694">
        <ele>177.191</ele>
        <time>2016-12-30T13:50:05Z</time>
      </trkpt>
      <trkpt lat="43.59492" lon="0.96778">
        <ele>177.518</ele>
        <time>2016-12-30T13:50:25Z</time>
      </trkpt>
      <trkpt lat="43.59552" lon="0.96665">
        <ele>180.082</ele>
        <time>2016-12-30T13:50:45Z</time>
      </trkpt>
      <trkpt lat="43.59545" lon="0.96608">
        <ele>180.014</ele>
        <time>2016-12-30T13:51:05Z</time>
      </trkpt>
      <trkpt lat="43.59602" lon="0.96196">
        <ele>194.631</ele>
        <time>2016-12-30T13:51:25Z</time>
      </trkpt>
      <trkpt lat="43.59604" lon="0.96091">
        <ele>200.214</ele>
        <time>2016-12-30T13:51:45Z</time>
      </trkpt>
      <trkpt lat="43.59653" lon="0.95823">
        <ele>213.488</ele>
        <time>2016-12-30T13:52:05Z</time>
      </trkpt>
      <trkpt lat="43.59707" lon="0.95609">
        <ele>218.785</ele>
        <time>2016-12-30T13:52:25Z</time>
      </trkpt>
      <trkpt lat="43.59736" lon="0.95452">
        <ele>220.489</ele>
        <time>2016-12-30T13:52:45Z</time>
      </trkpt>
      <trkpt lat="43.59739" lon="0.9532">
        <ele>222.917</ele>
        <time>2016-12-30T13:53:05Z</time>
      </trkpt>
      <trkpt lat="43.59823" lon="0.95098">
        <ele>225.008</ele>
        <time>2016-12-30T13:53:25Z</time>
      </trkpt>
      <trkpt lat="43.59969" lon="0.94842">
        <ele>235.412</ele>
        <time>2016-12-30T13:53:45Z</time>
      </trkpt>
      <trkpt lat="43.60424" lon="0.95099">
        <ele>222.332</ele>
        <time>2016-12-30T13:54:05Z</time>
      </trkpt>
      <trkpt lat="43.60445" lon="0.94802">
        <ele>231.189</ele>
        <time>2019-02-28T18:56:46Z</time>
      </trkpt>
      <trkpt lat="43.60436" lon="0.9473">
        <ele>229.783</ele>
        <time>2019-02-28T18:57:06Z</time>
      </trkpt>
      <trkpt lat="43.60468" lon="0.94418">
        <ele>219.525</ele>
        <time>2019-02-28T18:57:26Z</time>
      </trkpt>
      <trkpt lat="43.60463" lon="0.94264">
        <ele>210.022</ele>
        <time>2019-02-28T18:57:46Z</time>
      </trkpt>
      <trkpt lat="43.605" lon="0.94081">
        <ele>208.955</ele>
        <time>2019-02-28T18:58:06Z</time>
      </trkpt>
      <trkpt lat="43.60495" lon="0.94015">
        <ele>206.899</ele>
        <time>2016-12-30T13:54:45Z</time>
      </trkpt>
      <trkpt lat="43.60503" lon="0.93927">
        <ele>205.079</ele>
        <time>2016-12-30T13:55:05Z</time>
      </trkpt>
      <trkpt lat="43.60488" lon="0.93824">
        <ele>207.905</ele>
        <time>2016-12-30T13:55:25Z</time>
      </trkpt>
      <trkpt lat="43.60495" lon="0.93645">
        <ele>220.325</ele>
        <time>2016-12-30T13:55:45Z</time>
      </trkpt>
      <trkpt lat="43.60524" lon="0.93534">
        <ele>225.208</ele>
        <time>2016-12-30T13:56:05Z</time>
      </trkpt>
      <trkpt lat="43.60576" lon="0.93439">
        <ele>224.951</ele>
        <time>2016-12-30T13:56:25Z</time>
      </trkpt>
      <trkpt lat="43.60642" lon="0.93272">
        <ele>220.711</ele>
        <time>2016-12-30T13:56:45Z</time>
      </trkpt>
      <trkpt lat="43.60663" lon="0.93169">
        <ele>217.968</ele>
        <time>2016-12-30T13:57:05Z</time>
      </trkpt>
      <trkpt lat="43.60683" lon="0.93063">
        <ele>215.672</ele>
        <time>2016-12-30T13:57:25Z</time>
      </trkpt>
      <trkpt lat="43.60713" lon="0.9296">
        <ele>215.024</ele>
        <time>2016-12-30T13:57:45Z</time>
      </trkpt>
      <trkpt lat="43.60741" lon="0.92713">
        <ele>212.631</ele>
        <time>2016-12-30T13:58:05Z</time>
      </trkpt>
      <trkpt lat="43.60779" lon="0.92536">
        <ele>211.314</ele>
        <time>2016-12-30T13:58:25Z</time>
      </trkpt>
      <trkpt lat="43.60893" lon="0.92285">
        <ele>207.358</ele>
        <time>2016-12-30T13:58:45Z</time>
      </trkpt>
      <trkpt lat="43.6101" lon="0.92">
        <ele>185.096</ele>
        <time>2016-12-30T13:59:05Z</time>
      </trkpt>
      <trkpt lat="43.61032" lon="0.91822">
        <ele>208.731</ele>
        <time>2016-12-30T13:59:25Z</time>
      </trkpt>
      <trkpt lat="43.61077" lon="0.91634">
        <ele>209.624</ele>
        <time>2016-12-30T13:59:45Z</time>
      </trkpt>
      <trkpt lat="43.61085" lon="0.915">
        <ele>211.908</ele>
        <time>2016-12-30T14:00:05Z</time>
      </trkpt>
      <trkpt lat="43.61075" lon="0.91388">
        <ele>210.623</ele>
        <time>2016-12-30T14:00:25Z</time>
      </trkpt>
      <trkpt lat="43.61136" lon="0.91092">
        <ele>209.743</ele>
        <time>2016-12-30T14:00:45Z</time>
      </trkpt>
      <trkpt lat="43.60965" lon="0.91182">
        <ele>214.98</ele>
        <time>2016-12-30T14:01:05Z</time>
      </trkpt>
      <trkpt lat="43.60956" lon="0.91153">
        <ele>214.444</ele>
        <time>2016-12-30T14:01:25Z</time>
      </trkpt>
      <trkpt lat="43.60959" lon="0.9096">
        <ele>211.696</ele>
        <time>2016-12-30T14:01:45Z</time>
      </trkpt>
      <trkpt lat="43.60961" lon="0.90842">
        <ele>210.273</ele>
        <time>2016-12-30T14:02:05Z</time>
      </trkpt>
      <trkpt lat="43.6101" lon="0.90605">
        <ele>207.846</ele>
        <time>2016-12-30T14:02:25Z</time>
      </trkpt>
      <trkpt lat="43.61045" lon="0.90316">
        <ele>202.28</ele>
        <time>2016-12-30T14:02:45Z</time>
      </trkpt>
      <trkpt lat="43.61046" lon="0.90204">
        <ele>200.941</ele>
        <time>2016-12-30T14:03:05Z</time>
      </trkpt>
      <trkpt lat="43.61036" lon="0.90074">
        <ele>200.481</ele>
        <time>2016-12-30T14:03:25Z</time>
      </trkpt>
      <trkpt lat="43.61044" lon="0.90005">
        <ele>198.909</ele>
        <time>2016-12-30T14:03:45Z</time>
      </trkpt>
      <trkpt lat="43.61133" lon="0.89835">
        <ele>188.408</ele>
        <time>2016-12-30T14:04:05Z</time>
      </trkpt>
      <trkpt lat="43.61199" lon="0.89702">
        <ele>180.718</ele>
        <time>2016-12-30T14:04:25Z</time>
      </trkpt>
      <trkpt lat="43.61233" lon="0.89672">
        <ele>175.518</ele>
        <time>2016-12-30T14:04:45Z</time>
      </trkpt>
      <trkpt lat="43.61262" lon="0.89602">
        <ele>164.115</ele>
        <time>2016-12-30T14:05:05Z</time>
      </trkpt>
      <trkpt lat="43.61266" lon="0.89558">
        <ele>160.759</ele>
        <time>2016-12-30T14:05:25Z</time>
      </trkpt>
      <trkpt lat="43.61256" lon="0.89543">
        <ele>160.151</ele>
        <time>2016-12-30T14:05:45Z</time>
      </trkpt>
      <trkpt lat="43.61214" lon="0.89606">
        <ele>162.828</ele>
        <time>2016-12-30T14:06:05Z</time>
      </trkpt>
      <trkpt lat="43.612" lon="0.89616">
        <ele>163.781</ele>
        <time>2016-12-30T14:06:25Z</time>
      </trkpt>
      <trkpt lat="43.61198" lon="0.89619">
        <ele>164.445</ele>
        <time>2016-12-30T14:06:45Z</time>
      </trkpt>
      <trkpt lat="43.61164" lon="0.89621">
        <ele>162.735</ele>
        <time>2016-12-30T14:07:05Z</time>
      </trkpt>
      <trkpt lat="43.61106" lon="0.89584">
        <ele>160.086</ele>
        <time>2016-12-30T14:07:25Z</time>
      </trkpt>
      <trkpt lat="43.6101" lon="0.89617">
        <ele>163.214</ele>
        <time>2016-12-30T14:07:45Z</time>
      </trkpt>
      <trkpt lat="43.6078" lon="0.89547">
        <ele>165.008</ele>
        <time>2016-12-30T14:08:05Z</time>
      </trkpt>
      <trkpt lat="43.60672" lon="0.89534">
        <ele>165.047</ele>
        <time>2016-12-30T14:08:25Z</time>
      </trkpt>
      <trkpt lat="43.60723" lon="0.89457">
        <ele>165.067</ele>
        <time>2016-12-30T14:08:45Z</time>
      </trkpt>
      <trkpt lat="43.60782" lon="0.89318">
        <ele>165.024</ele>
        <time>2016-12-30T14:09:05Z</time>
      </trkpt>
      <trkpt lat="43.60983" lon="0.8909">
        <ele>167.038</ele>
        <time>2016-12-30T14:09:25Z</time>
      </trkpt>
      <trkpt lat="43.61096" lon="0.88947">
        <ele>166.05</ele>
        <time>2016-12-30T14:09:45Z</time>
      </trkpt>
      <trkpt lat="43.61202" lon="0.88851">
        <ele>167.697</ele>
        <time>2016-12-30T14:10:05Z</time>
      </trkpt>
      <trkpt lat="43.61298" lon="0.8878">
        <ele>172.94</ele>
        <time>2016-12-30T14:10:25Z</time>
      </trkpt>
      <trkpt lat="43.61322" lon="0.88658">
        <ele>177.754</ele>
        <time>2016-12-30T14:10:45Z</time>
      </trkpt>
      <trkpt lat="43.6131" lon="0.88537">
        <ele>182.549</ele>
        <time>2016-12-30T14:11:05Z</time>
      </trkpt>
      <trkpt lat="43.61318" lon="0.88411">
        <ele>187.202</ele>
        <time>2016-12-30T14:11:25Z</time>
      </trkpt>
      <trkpt lat="43.61343" lon="0.8828">
        <ele>191.922</ele>
        <time>2016-12-30T14:11:45Z</time>
      </trkpt>
      <trkpt lat="43.61364" lon="0.88262">
        <ele>192.708</ele>
        <time>2016-12-30T14:12:05Z</time>
      </trkpt>
      <trkpt lat="43.61419" lon="0.88102">
        <ele>199.038</ele>
        <time>2016-12-30T14:12:25Z</time>
      </trkpt>
      <trkpt lat="43.61429" lon="0.88067">
        <ele>199.868</ele>
        <time>2016-12-30T14:12:45Z</time>
      </trkpt>
      <trkpt lat="43.61618" lon="0.88115">
        <ele>200.075</ele>
        <time>2016-12-30T14:13:05Z</time>
      </trkpt>
      <trkpt lat="43.61633" lon="0.88086">
        <ele>200.059</ele>
        <time>2016-12-30T14:13:25Z</time>
      </trkpt>
      <trkpt lat="43.61684" lon="0.87872">
        <ele>200.071</ele>
        <time>2016-12-30T14:13:45Z</time>
      </trkpt>
      <trkpt lat="43.61744" lon="0.87698">
        <ele>196.858</ele>
        <time>2016-12-30T14:14:05Z</time>
      </trkpt>
      <trkpt lat="43.61782" lon="0.87534">
        <ele>196.661</ele>
        <time>2016-12-30T14:14:25Z</time>
      </trkpt>
      <trkpt lat="43.61848" lon="0.87588">
        <ele>190.475</ele>
        <time>2016-12-30T14:14:45Z</time>
      </trkpt>
      <trkpt lat="43.61964" lon="0.87428">
        <ele>184.585</ele>
        <time>2016-12-30T14:15:05Z</time>
      </trkpt>
      <trkpt lat="43.62107" lon="0.87162">
        <ele>176.589</ele>
        <time>2016-12-30T14:15:25Z</time>
      </trkpt>
      <trkpt lat="43.62171" lon="0.87035">
        <ele>175.017</ele>
        <time>2016-12-30T14:15:45Z</time>
      </trkpt>
      <trkpt lat="43.622" lon="0.87028">
        <ele>174.408</ele>
        <time>2016-12-30T14:16:05Z</time>
      </trkpt>
      <trkpt lat="43.62235" lon="0.87019">
        <ele>171.112</ele>
        <time>2016-12-30T14:16:25Z</time>
      </trkpt>
      <trkpt lat="43.62274" lon="0.87033">
        <ele>168.622</ele>
        <time>2016-12-30T14:16:45Z</time>
      </trkpt>
      <trkpt lat="43.62378" lon="0.87007">
        <ele>149.629</ele>
        <time>2016-12-30T14:17:05Z</time>
      </trkpt>
      <trkpt lat="43.62393" lon="0.8698">
        <ele>146.473</ele>
        <time>2016-12-30T14:17:25Z</time>
      </trkpt>
      <trkpt lat="43.6249" lon="0.87027">
        <ele>145.065</ele>
        <time>2016-12-30T14:17:45Z</time>
      </trkpt>
      <trkpt lat="43.62532" lon="0.8705">
        <ele>146.482</ele>
        <time>2016-12-30T14:18:05Z</time>
      </trkpt>
    </trkseg>
  </trk>
</gpx>